Time;durP1;ratioP1;P1;durP2;ratioP2;P2;SDS_P1;SDS_P2;PMS_P1;PMS_P2;Temp;Humidity;BMP_temperature;BMP_pressure;BME280_temperature;BME280_humidity;BME280_pressure;Samples;Min_cycle;Max_cycle;Signal;HPM_P1;HPM_P2
2021/12/17 00:02:28;;;;;;;3.03;1.92;;;;;;;7.51;100.00;104020.56;5039892;28;20028;-75
2021/12/17 00:04:39;;;;;;;4.35;2.28;;;;;;;7.53;100.00;104015.25;5038017;28;20045;-75
2021/12/17 00:07:08;;;;;;;3.38;1.88;;;;;;;7.52;100.00;104010.91;5044378;28;20029;-75
2021/12/17 00:09:34;;;;;;;2.60;1.77;;;;;;;7.54;100.00;104012.56;5044685;28;20044;-75
2021/12/17 00:12:00;;;;;;;2.92;1.90;;;;;;;7.46;100.00;103995.34;5041069;28;20084;-75
2021/12/17 00:14:35;;;;;;;2.67;2.00;;;;;;;7.39;100.00;103990.28;5046405;28;20111;-75
2021/12/17 00:17:04;;;;;;;3.03;2.00;;;;;;;7.50;100.00;104005.69;5050425;28;20040;-75
2021/12/17 00:49:20;;;;;;;4.43;1.50;;;;;;;7.37;100.00;103991.25;4988590;28;20045;-75
2021/12/17 00:52:02;;;;;;;3.83;2.05;;;;;;;7.49;100.00;104011.00;4991622;28;20026;-76
2021/12/17 00:54:38;;;;;;;2.25;1.50;;;;;;;7.47;100.00;104010.19;4976008;28;20062;-75
2021/12/17 00:57:12;;;;;;;2.47;1.35;;;;;;;7.46;100.00;104011.97;4986442;28;20026;-75
2021/12/17 00:59:39;;;;;;;2.28;1.42;;;;;;;7.46;100.00;104011.97;4991556;28;20046;-75
2021/12/17 01:02:12;;;;;;;3.83;1.55;;;;;;;7.35;100.00;103988.69;4974961;28;20053;-75
2021/12/17 01:04:49;;;;;;;4.25;1.73;;;;;;;7.46;100.00;104005.84;4987149;28;20229;-76
2021/12/17 01:07:17;;;;;;;4.20;1.73;;;;;;;7.46;100.00;104016.38;4995144;28;20526;-75
2021/12/17 01:09:45;;;;;;;2.60;1.52;;;;;;;7.45;100.00;104014.63;4972422;28;20026;-76
2021/12/17 01:12:12;;;;;;;4.13;1.70;;;;;;;7.37;100.00;104001.78;4993101;28;20042;-75
2021/12/17 01:14:40;;;;;;;2.00;1.35;;;;;;;7.47;100.00;104018.06;5028936;28;20051;-75
2021/12/17 01:17:07;;;;;;;3.33;1.75;;;;;;;7.44;100.00;104018.19;5050759;28;20396;-75
2021/12/17 01:24:56;;;;;;;1.75;1.17;;;;;;;7.50;100.00;104025.88;5044155;28;20319;-76
2021/12/17 01:35:53;;;;;;;4.10;1.70;;;;;;;7.53;100.00;104023.13;4987753;28;20048;-76
2021/12/17 01:43:51;;;;;;;2.30;1.30;;;;;;;7.47;100.00;104012.81;4984106;28;20062;-75
2021/12/17 01:46:23;;;;;;;2.40;1.27;;;;;;;7.51;100.00;104022.31;4983730;28;20132;-76
2021/12/17 01:56:59;;;;;;;2.08;1.30;;;;;;;7.56;100.00;104028.28;4987514;28;20500;-76
2021/12/17 01:59:38;;;;;;;1.83;1.23;;;;;;;7.54;100.00;104020.44;4973220;28;20055;-76
2021/12/17 02:02:06;;;;;;;2.22;1.20;;;;;;;7.26;100.00;103978.47;5041806;28;20040;-74
2021/12/17 02:04:34;;;;;;;2.42;1.35;;;;;;;7.54;100.00;104016.97;5050008;28;20028;-76
2021/12/17 02:07:01;;;;;;;1.95;1.38;;;;;;;7.43;100.00;103991.06;5044015;28;20095;-75
2021/12/17 02:32:06;;;;;;;4.95;2.33;;;;;;;7.46;100.00;104000.59;5045362;28;20041;-75
2021/12/17 02:37:24;;;;;;;3.28;2.00;;;;;;;7.36;100.00;103984.28;5044501;28;20044;-75
2021/12/17 02:47:40;;;;;;;2.95;1.70;;;;;;;7.45;100.00;104004.13;5056129;28;20048;-75
2021/12/17 02:50:08;;;;;;;3.58;1.95;;;;;;;7.47;100.00;104029.47;5043962;28;20032;-75
2021/12/17 02:52:37;;;;;;;4.07;2.25;;;;;;;7.50;100.00;104020.63;5048585;28;20068;-75
2021/12/17 02:55:05;;;;;;;3.90;1.95;;;;;;;7.49;100.00;104011.88;5054143;28;20037;-76
2021/12/17 02:57:31;;;;;;;3.63;1.95;;;;;;;7.48;100.00;104006.66;5055151;28;20499;-76
2021/12/17 02:59:59;;;;;;;3.25;1.80;;;;;;;7.41;100.00;103992.88;5058398;28;20026;-76
2021/12/17 03:02:27;;;;;;;3.50;1.92;;;;;;;7.52;100.00;104010.91;5041549;28;20029;-75
2021/12/17 03:04:53;;;;;;;3.78;2.13;;;;;;;7.48;100.00;104002.25;5045069;28;20442;-75
2021/12/17 03:07:19;;;;;;;3.88;2.20;;;;;;;7.41;100.00;103993.72;5048616;28;20039;-76
2021/12/17 03:12:26;;;;;;;3.00;1.90;;;;;;;7.52;100.00;103997.78;5059241;28;20131;-76
2021/12/17 03:15:01;;;;;;;4.25;2.40;;;;;;;7.52;100.00;104000.41;5061278;28;20041;-76
2021/12/17 03:18:12;;;;;;;3.70;2.17;;;;;;;7.52;100.00;104005.66;5043360;28;20139;-75
2021/12/17 03:26:00;;;;;;;3.47;2.17;;;;;;;7.53;100.00;104015.25;5050144;28;20412;-75
2021/12/17 03:28:26;;;;;;;3.58;2.13;;;;;;;7.47;100.00;104004.94;5047254;28;20470;-75
2021/12/17 03:30:52;;;;;;;2.55;1.70;;;;;;;7.41;100.00;103998.13;5045096;28;20025;-75
2021/12/17 03:33:17;;;;;;;3.65;2.22;;;;;;;7.51;100.00;104019.69;5042396;28;20036;-75
2021/12/17 03:35:43;;;;;;;3.10;2.10;;;;;;;7.51;100.00;104023.19;5048092;28;20119;-75
2021/12/17 03:38:08;;;;;;;2.67;1.88;;;;;;;7.51;100.00;104019.69;5047294;28;20017;-75
2021/12/17 03:40:35;;;;;;;4.93;2.13;;;;;;;7.51;100.00;104023.19;5050579;28;20101;-75
2021/12/17 03:43:03;;;;;;;3.03;1.77;;;;;;;7.46;100.00;104011.97;5048379;28;20104;-76
2021/12/17 03:45:31;;;;;;;3.55;1.80;;;;;;;7.20;100.00;103957.66;5046062;28;20043;-76
2021/12/17 03:47:56;;;;;;;3.97;2.00;;;;;;;7.53;100.00;104015.25;5050464;28;20512;-76
2021/12/17 03:50:23;;;;;;;3.03;1.80;;;;;;;7.51;100.00;104009.19;5044055;28;20026;-76
2021/12/17 03:52:50;;;;;;;3.92;2.42;;;;;;;7.48;100.00;103999.63;5049559;28;20029;-75
2021/12/17 03:55:15;;;;;;;3.38;1.95;;;;;;;7.42;100.00;103994.56;5044166;28;23650;-75
2021/12/17 03:57:41;;;;;;;4.57;2.13;;;;;;;7.37;100.00;103981.59;5038976;28;20130;-75
2021/12/17 04:00:09;;;;;;;3.45;1.92;;;;;;;7.44;100.00;103997.16;5062613;28;20072;-75
2021/12/17 04:02:35;;;;;;;2.83;1.83;;;;;;;7.49;100.00;104000.47;5042065;28;20021;-75
2021/12/17 04:05:02;;;;;;;3.28;1.85;;;;;;;7.34;100.00;103976.47;5041063;28;20035;-75
2021/12/17 04:07:27;;;;;;;4.88;2.10;;;;;;;7.40;100.00;103991.13;5050836;28;20064;-76
2021/12/17 04:09:53;;;;;;;4.70;2.63;;;;;;;7.44;100.00;103991.91;5032676;28;20021;-75
2021/12/17 04:12:22;;;;;;;4.65;2.70;;;;;;;7.43;100.00;103993.69;5046877;28;20044;-75
2021/12/17 04:14:49;;;;;;;3.03;1.80;;;;;;;7.41;100.00;103988.47;5045537;28;20060;-75
2021/12/17 04:17:22;;;;;;;3.92;2.03;;;;;;;7.24;100.00;103956.66;5049292;28;20025;-75
2021/12/17 04:19:47;;;;;;;2.92;1.73;;;;;;;7.40;100.00;103981.50;5041123;28;20021;-76
2021/12/17 04:22:13;;;;;;;4.55;2.40;;;;;;;7.43;100.00;103972.66;5039075;28;20497;-76
2021/12/17 04:24:38;;;;;;;3.83;1.88;;;;;;;7.43;100.00;103980.53;5042587;28;20029;-76
2021/12/17 04:27:05;;;;;;;3.50;2.22;;;;;;;7.42;100.00;103989.31;5030775;28;20040;-76
2021/12/17 04:29:32;;;;;;;3.38;2.35;;;;;;;7.41;100.00;103979.75;5040445;28;20385;-76
2021/12/17 04:31:57;;;;;;;3.88;2.30;;;;;;;7.29;100.00;103972.25;5047266;28;20550;-75
2021/12/17 04:34:23;;;;;;;3.10;2.08;;;;;;;7.40;100.00;103986.78;5047614;28;20028;-75
2021/12/17 04:36:52;;;;;;;4.20;2.03;;;;;;;7.40;100.00;103991.13;5050324;28;20079;-75
2021/12/17 04:39:18;;;;;;;3.38;2.35;;;;;;;7.39;100.00;103985.03;5044270;28;20037;-75
2021/12/17 04:41:55;;;;;;;3.30;2.15;;;;;;;7.41;100.00;103990.25;5040957;28;20029;-75
2021/12/17 04:44:25;;;;;;;7.38;2.83;;;;;;;7.40;100.00;103984.16;5039935;28;20033;-75
2021/12/17 04:47:03;;;;;;;3.85;2.67;;;;;;;7.40;100.00;103997.28;5039171;28;20029;-75
2021/12/17 04:57:42;;;;;;;3.90;2.60;;;;;;;7.49;100.00;104021.50;5041581;28;20092;-76
2021/12/17 05:00:18;;;;;;;3.10;1.92;;;;;;;7.36;100.00;104000.91;5046586;28;20476;-76
2021/12/17 05:02:48;;;;;;;3.65;2.60;;;;;;;7.47;100.00;104010.19;5049006;28;20036;-75
2021/12/17 05:05:15;;;;;;;4.32;2.72;;;;;;;7.46;100.00;104000.59;5045782;28;20025;-75
2021/12/17 05:07:49;;;;;;;5.75;2.83;;;;;;;7.49;100.00;104014.50;5046724;28;20620;-75
2021/12/17 05:10:42;;;;;;;5.72;2.42;;;;;;;7.49;100.00;104008.38;5042625;28;20075;-75
2021/12/17 05:18:44;;;;;;;6.70;2.70;;;;;;;7.49;100.00;104014.50;5038389;28;20044;-75
2021/12/17 05:21:09;;;;;;;3.42;2.13;;;;;;;7.49;100.00;104016.25;5043003;28;20037;-75
2021/12/17 05:23:41;;;;;;;6.50;2.75;;;;;;;7.49;100.00;104024.13;5046624;28;20044;-76
2021/12/17 05:26:15;;;;;;;4.47;2.38;;;;;;;7.50;100.00;104034.59;5051183;28;20065;-76
2021/12/17 05:28:41;;;;;;;4.68;2.72;;;;;;;7.52;100.00;104034.56;5041559;28;20100;-76
2021/12/17 05:31:07;;;;;;;4.82;2.85;;;;;;;7.51;100.00;104020.56;5055932;28;20078;-76
2021/12/17 05:33:33;;;;;;;5.25;2.67;;;;;;;7.43;100.00;104004.19;5047220;28;20449;-75
2021/12/17 05:35:58;;;;;;;5.13;2.80;;;;;;;7.38;100.00;103999.09;5031001;28;20036;-75
2021/12/17 05:38:26;;;;;;;5.68;3.05;;;;;;;7.44;100.00;104012.94;5053702;28;20121;-76
2021/12/17 05:40:52;;;;;;;5.90;3.25;;;;;;;7.45;100.00;104022.53;5041706;28;20048;-75
2021/12/17 05:43:17;;;;;;;4.57;2.72;;;;;;;7.44;100.00;104026.91;5041680;28;20119;-75
2021/12/17 05:45:51;;;;;;;6.00;2.80;;;;;;;7.45;100.00;104030.41;5057530;28;20052;-75
2021/12/17 05:48:20;;;;;;;6.10;3.00;;;;;;;7.32;100.00;104008.97;5047847;28;20033;-75
2021/12/17 05:50:47;;;;;;;6.45;2.75;;;;;;;7.43;100.00;104027.00;5044938;28;20060;-75
2021/12/17 05:53:13;;;;;;;8.73;3.10;;;;;;;7.40;100.00;104026.19;5048770;28;20496;-76
2021/12/17 05:55:38;;;;;;;5.95;3.72;;;;;;;7.24;100.00;103995.22;5048201;28;20032;-76
2021/12/17 05:58:05;;;;;;;8.65;3.58;;;;;;;7.37;100.00;104022.78;5047152;28;20501;-76
2021/12/17 06:00:31;;;;;;;6.50;3.38;;;;;;;7.30;100.00;104006.38;5047211;28;20137;-76
2021/12/17 06:03:00;;;;;;;11.10;3.72;;;;;;;7.36;100.00;104021.06;5048954;28;20052;-76
2021/12/17 06:05:27;;;;;;;10.55;3.95;;;;;;;7.36;100.00;104007.91;5046442;28;20108;-75
2021/12/17 06:07:52;;;;;;;13.68;4.63;;;;;;;7.28;100.00;103997.69;5041222;28;20029;-76
2021/12/17 06:10:18;;;;;;;11.40;3.70;;;;;;;7.29;100.00;104007.25;5032914;28;20033;-75
2021/12/17 06:12:44;;;;;;;12.50;3.65;;;;;;;7.26;100.00;104003.91;5042265;28;20025;-76
2021/12/17 06:15:15;;;;;;;7.18;3.40;;;;;;;7.22;100.00;104003.13;5042557;28;20090;-75
2021/12/17 06:17:41;;;;;;;13.45;4.53;;;;;;;7.25;100.00;104012.69;5043047;28;20538;-76
2021/12/17 06:20:09;;;;;;;7.57;4.00;;;;;;;7.09;100.00;103993.94;5043512;28;20102;-76
2021/12/17 06:22:35;;;;;;;8.60;4.15;;;;;;;7.21;100.00;104017.19;5045107;28;20048;-75
2021/12/17 06:25:01;;;;;;;9.93;4.07;;;;;;;7.27;100.00;104024.84;5043359;28;20033;-75
2021/12/17 06:27:27;;;;;;;12.40;3.63;;;;;;;7.28;100.00;104018.69;5044726;28;20033;-76
2021/12/17 06:29:53;;;;;;;11.18;4.75;;;;;;;7.28;100.00;104012.59;5040414;28;20098;-76
2021/12/17 06:32:19;;;;;;;10.85;4.13;;;;;;;7.26;100.00;104010.00;5045165;28;20025;-76
2021/12/17 06:34:46;;;;;;;9.25;3.78;;;;;;;7.23;100.00;104015.38;5041349;28;20397;-76
2021/12/17 06:37:11;;;;;;;11.20;4.72;;;;;;;7.21;100.00;104011.94;5042655;28;20494;-76
2021/12/17 06:39:37;;;;;;;10.82;4.63;;;;;;;7.06;100.00;103996.69;5041598;28;20044;-76
2021/12/17 06:42:04;;;;;;;11.45;3.90;;;;;;;7.20;100.00;104033.84;5043399;28;20053;-76
2021/12/17 06:44:30;;;;;;;11.68;4.10;;;;;;;7.16;100.00;104024.34;5039932;28;20501;-76
2021/12/17 06:49:30;;;;;;;12.85;4.72;;;;;;;7.06;100.00;104005.41;5042700;28;20044;-76
2021/12/17 07:10:46;;;;;;;11.93;4.13;;;;;;;7.15;100.00;104027.88;5045838;28;20039;-76
2021/12/17 07:21:55;;;;;;;10.23;4.63;;;;;;;7.23;100.00;104036.41;5044013;28;20133;-76
2021/12/17 07:39:53;;;;;;;11.05;4.45;;;;;;;7.26;100.00;104043.31;4974558;28;20117;-76
2021/12/17 07:42:18;;;;;;;13.13;5.60;;;;;;;7.27;100.00;104042.38;4985689;28;20065;-76
2021/12/17 07:44:44;;;;;;;10.93;4.45;;;;;;;7.16;100.00;104035.72;4991943;28;20139;-77
2021/12/17 07:47:09;;;;;;;10.18;4.72;;;;;;;7.30;100.00;104056.28;4973591;28;20538;-76
2021/12/17 07:49:35;;;;;;;12.45;5.05;;;;;;;7.24;100.00;104043.34;4972062;28;20668;-76
2021/12/17 07:52:01;;;;;;;13.98;5.75;;;;;;;7.21;100.00;104040.84;4958287;28;20069;-76
2021/12/17 07:54:26;;;;;;;14.13;5.07;;;;;;;7.35;100.00;104062.25;4963394;28;20030;-76
2021/12/17 07:56:52;;;;;;;13.73;5.88;;;;;;;7.37;100.00;104060.44;4983190;28;20104;-76
2021/12/17 07:59:18;;;;;;;12.82;6.18;;;;;;;7.39;100.00;104061.25;4974384;28;20069;-76
2021/12/17 08:01:43;;;;;;;13.27;5.45;;;;;;;7.38;100.00;104053.41;4983565;28;20125;-76
2021/12/17 08:04:10;;;;;;;11.50;5.25;;;;;;;7.45;100.00;104067.19;4972174;28;20058;-76
2021/12/17 08:06:36;;;;;;;11.55;5.43;;;;;;;7.47;100.00;104060.13;4986164;28;20414;-76
2021/12/17 08:09:03;;;;;;;14.13;5.57;;;;;;;7.36;100.00;104039.44;4981697;28;20035;-77
2021/12/17 08:11:31;;;;;;;12.80;7.03;;;;;;;7.52;100.00;104063.47;5045662;28;20044;-76
2021/12/17 08:13:57;;;;;;;11.65;5.70;;;;;;;7.54;100.00;104062.50;5039436;28;20037;-76
2021/12/17 08:31:29;;;;;;;16.67;5.72;;;;;;;7.52;100.00;104045.94;5044563;28;20044;-76
2021/12/17 08:33:55;;;;;;;13.93;6.05;;;;;;;7.58;100.00;104056.25;5045426;28;20425;-76
2021/12/17 08:36:21;;;;;;;13.48;5.82;;;;;;;7.64;100.00;104060.41;5056978;28;20083;-76
2021/12/17 08:38:49;;;;;;;11.77;6.38;;;;;;;7.60;100.00;104058.81;5040535;28;20041;-76
2021/12/17 08:41:16;;;;;;;12.23;5.50;;;;;;;7.49;100.00;104051.31;5049611;28;20013;-76
2021/12/17 08:43:42;;;;;;;12.88;5.38;;;;;;;7.65;100.00;104067.41;5049416;28;20052;-76
2021/12/17 08:46:08;;;;;;;13.18;5.68;;;;;;;7.68;100.00;104066.44;5060370;28;20024;-76
2021/12/17 08:48:33;;;;;;;11.75;5.75;;;;;;;7.67;100.00;104062.09;5045911;28;20036;-76
2021/12/17 08:51:00;;;;;;;14.38;5.72;;;;;;;7.68;100.00;104071.69;5053387;28;20604;-76
2021/12/17 08:53:25;;;;;;;15.00;5.65;;;;;;;7.55;100.00;104050.22;5046342;28;20032;-77
2021/12/17 08:55:51;;;;;;;14.18;5.88;;;;;;;7.72;100.00;104073.31;5038940;28;20041;-76
2021/12/17 08:58:16;;;;;;;13.75;4.82;;;;;;;7.60;100.00;104056.19;5044933;28;20056;-76
2021/12/17 09:00:43;;;;;;;13.23;5.20;;;;;;;7.75;100.00;104071.44;5052378;28;20025;-76
2021/12/17 09:03:10;;;;;;;11.20;5.60;;;;;;;7.76;100.00;104067.91;5037957;28;20033;-76
2021/12/17 09:05:41;;;;;;;15.48;5.25;;;;;;;7.83;100.00;104079.91;5046874;28;20032;-76
2021/12/17 09:08:09;;;;;;;12.90;5.13;;;;;;;7.84;100.00;104072.91;5044771;28;20047;-76
2021/12/17 09:10:35;;;;;;;12.70;4.60;;;;;;;7.80;100.00;104066.03;5049031;28;20029;-76
2021/12/17 09:13:00;;;;;;;11.02;4.82;;;;;;;7.81;100.00;104058.06;5055765;28;20055;-76
2021/12/17 09:15:26;;;;;;;11.32;5.32;;;;;;;7.97;100.00;104082.09;5049371;28;20478;-76
2021/12/17 09:17:52;;;;;;;14.73;5.30;;;;;;;7.97;100.00;104074.19;5054312;28;20028;-76
2021/12/17 09:20:17;;;;;;;15.52;5.68;;;;;;;7.95;100.00;104072.53;5043102;28;20025;-76
2021/12/17 09:22:43;;;;;;;11.48;5.05;;;;;;;8.09;100.00;104090.44;5052682;28;20044;-76
2021/12/17 09:25:09;;;;;;;11.60;4.95;;;;;;;8.11;100.00;104096.53;5052352;28;20155;-76
2021/12/17 09:27:35;;;;;;;7.85;4.22;;;;;;;8.10;100.00;104092.16;5046212;28;20025;-76
2021/12/17 09:30:01;;;;;;;9.27;4.15;;;;;;;8.18;100.00;104096.22;5040776;28;20040;-76
2021/12/17 09:32:26;;;;;;;13.20;4.68;;;;;;;8.07;100.00;104073.84;5048926;28;20102;-76
2021/12/17 09:34:53;;;;;;;14.75;5.53;;;;;;;8.25;100.00;104107.38;5049434;28;20036;-76
2021/12/17 09:37:18;;;;;;;12.48;3.75;;;;;;;8.20;100.00;104097.03;5049761;28;20068;-76
2021/12/17 09:39:44;;;;;;;9.57;4.97;;;;;;;8.21;100.00;104101.41;5049374;28;20560;-76
2021/12/17 09:42:10;;;;;;;10.15;3.40;;;;;;;8.27;100.00;104109.97;5044721;28;20029;-76
2021/12/17 09:44:36;;;;;;;12.60;4.32;;;;;;;8.36;100.00;104123.69;5049056;28;20086;-76
2021/12/17 09:47:02;;;;;;;9.85;4.40;;;;;;;8.37;100.00;104122.75;5049401;28;20025;-76
2021/12/17 09:49:28;;;;;;;7.15;3.80;;;;;;;8.41;100.00;104128.81;5054516;28;20036;-76
2021/12/17 09:51:56;;;;;;;8.25;3.58;;;;;;;8.42;100.00;104128.72;5046571;28;20020;-76
2021/12/17 09:54:22;;;;;;;7.40;3.65;;;;;;;8.44;100.00;104128.69;5043048;28;20085;-76
2021/12/17 09:56:48;;;;;;;9.25;4.53;;;;;;;8.44;100.00;104128.69;5047340;28;20048;-76
2021/12/17 09:59:14;;;;;;;7.82;3.05;;;;;;;8.44;100.00;104133.94;5049238;28;20065;-76
2021/12/17 10:01:42;;;;;;;6.03;3.50;;;;;;;8.41;100.00;104123.53;5047276;28;20098;-77
2021/12/17 10:04:27;;;;;;;6.35;3.00;;;;;;;8.48;100.00;104135.56;5048130;28;20029;-77
2021/12/17 10:06:53;;;;;;;6.95;3.05;;;;;;;8.54;100.00;104129.22;5045522;28;20029;-76
2021/12/17 10:09:18;;;;;;;7.15;3.38;;;;;;;8.61;100.00;104130.72;5049156;28;20558;-76
2021/12/17 10:12:04;;;;;;;9.93;3.40;;;;;;;8.67;100.00;104124.34;5036525;28;20021;-76
2021/12/17 10:14:29;;;;;;;6.35;3.42;;;;;;;8.70;100.00;104119.81;5043153;28;20104;-77
2021/12/17 10:17:13;;;;;;;5.18;2.70;;;;;;;8.54;100.00;104087.09;5042976;28;20516;-77
2021/12/17 10:19:47;;;;;;;5.25;3.08;;;;;;;8.65;100.00;104112.09;5043944;28;20389;-77
2021/12/17 10:22:15;;;;;;;8.98;3.25;;;;;;;8.68;100.00;104100.59;5041817;28;20033;-76
2021/12/17 10:24:55;;;;;;;6.78;3.65;;;;;;;8.83;100.00;104117.59;5049868;28;20037;-76
2021/12/17 10:27:27;;;;;;;7.70;3.28;;;;;;;8.69;100.00;104077.75;5048068;28;20071;-76
2021/12/17 10:29:53;;;;;;;7.18;3.10;;;;;;;8.95;100.00;104103.97;5051015;28;20025;-76
2021/12/17 10:32:22;;;;;;;4.93;2.58;;;;;;;8.96;100.00;104097.75;5052109;28;20033;-76
2021/12/17 10:35:27;;;;;;;4.90;2.80;;;;;;;9.04;100.00;104103.59;5054740;28;20033;-76
2021/12/17 10:38:04;;;;;;;6.07;2.67;;;;;;;8.97;100.00;104086.31;4972692;28;20033;-77
2021/12/17 10:40:36;;;;;;;3.03;2.35;;;;;;;9.14;100.00;104100.59;4987649;28;20399;-77
2021/12/17 10:43:08;;;;;;;5.65;3.17;;;;;;;9.18;100.00;104102.19;4987913;28;20117;-77
2021/12/17 10:45:38;;;;;;;4.60;2.60;;;;;;;9.20;100.00;104108.25;4990586;28;20066;-77
2021/12/17 10:48:26;;;;;;;6.32;2.95;;;;;;;9.22;100.00;104102.00;4986137;28;20038;-76
2021/12/17 10:53:54;;;;;;;3.63;2.05;;;;;;;9.36;100.00;104097.94;4990254;28;20102;-76
2021/12/17 10:56:24;;;;;;;7.10;2.80;;;;;;;9.39;100.00;104095.22;4991171;28;20042;-76
2021/12/17 10:59:03;;;;;;;3.25;2.20;;;;;;;9.40;100.00;104092.50;4988946;28;20074;-76
2021/12/17 11:01:43;;;;;;;4.30;2.40;;;;;;;9.33;100.00;104080.47;4989911;28;20042;-76
2021/12/17 11:04:09;;;;;;;5.13;2.63;;;;;;;9.46;100.00;104105.44;4974043;28;20034;-77
2021/12/17 11:06:46;;;;;;;3.97;2.50;;;;;;;9.46;100.00;104096.66;4991331;28;20029;-76
2021/12/17 11:09:13;;;;;;;4.22;2.47;;;;;;;9.45;100.00;104098.44;5033180;28;20037;-76
2021/12/17 11:11:42;;;;;;;3.60;2.30;;;;;;;9.45;100.00;104111.63;5053939;28;20036;-76
2021/12/17 11:14:08;;;;;;;4.35;2.28;;;;;;;9.42;100.00;104100.34;5048429;28;20037;-76
2021/12/17 11:16:39;;;;;;;6.68;2.15;;;;;;;9.48;100.00;104119.41;5047084;28;20072;-76
2021/12/17 11:19:06;;;;;;;7.30;2.70;;;;;;;9.39;100.00;104097.84;5047779;28;20037;-76
2021/12/17 11:21:32;;;;;;;4.95;2.38;;;;;;;9.37;100.00;104105.81;5052264;28;20033;-76
2021/12/17 11:23:58;;;;;;;4.65;2.75;;;;;;;9.50;100.00;104121.13;5053067;28;20091;-76
2021/12/17 11:26:25;;;;;;;5.78;3.30;;;;;;;9.48;100.00;104129.09;5052764;28;20056;-76
2021/12/17 11:28:51;;;;;;;4.20;2.42;;;;;;;9.49;100.00;104125.53;5046685;28;20033;-77
2021/12/17 11:31:17;;;;;;;2.67;1.80;;;;;;;9.52;100.00;104119.28;5048239;28;20028;-77
2021/12/17 11:33:43;;;;;;;4.05;2.30;;;;;;;9.45;100.00;104114.28;5048249;28;20044;-76
2021/12/17 11:36:08;;;;;;;5.65;2.22;;;;;;;9.48;100.00;104123.81;5046143;28;20033;-76
2021/12/17 11:38:51;;;;;;;3.85;1.80;;;;;;;9.32;100.00;104102.50;5027622;28;20029;-77
2021/12/17 11:41:25;;;;;;;3.28;2.22;;;;;;;9.37;100.00;104099.69;5047484;28;20037;-76
2021/12/17 11:43:59;;;;;;;4.70;2.00;;;;;;;9.43;100.00;104116.09;5041844;28;20118;-77
2021/12/17 11:46:26;;;;;;;2.58;1.70;;;;;;;9.43;100.00;104112.63;5039387;28;20025;-76
2021/12/17 11:48:55;;;;;;;5.90;2.30;;;;;;;9.42;100.00;104100.34;5047390;28;20056;-76
2021/12/17 11:51:30;;;;;;;6.88;2.22;;;;;;;9.47;100.00;104112.44;5049614;28;20044;-77
2021/12/17 11:54:05;;;;;;;4.70;2.22;;;;;;;9.47;100.00;104112.44;5044577;28;20025;-77
2021/12/17 11:56:45;;;;;;;2.70;1.90;;;;;;;9.47;100.00;104107.16;5050345;28;20120;-77
2021/12/17 11:59:23;;;;;;;3.17;2.00;;;;;;;9.47;100.00;104109.78;5046506;28;20049;-76
2021/12/17 12:02:05;;;;;;;2.38;1.83;;;;;;;9.39;100.00;104089.94;5045748;28;20047;-77
2021/12/17 12:04:33;;;;;;;3.67;2.13;;;;;;;9.46;100.00;104108.06;5044515;28;20036;-76
2021/12/17 12:07:03;;;;;;;5.22;2.05;;;;;;;9.47;100.00;104107.16;5040653;28;20108;-76
2021/12/17 12:10:00;;;;;;;2.80;1.85;;;;;;;9.49;100.00;104104.44;5047918;28;20489;-77
2021/12/17 12:12:33;;;;;;;4.90;2.20;;;;;;;9.48;100.00;104106.22;5045601;28;20029;-77
2021/12/17 12:15:20;;;;;;;3.03;2.17;;;;;;;9.47;100.00;104108.91;5039636;28;20033;-76
2021/12/17 12:17:57;;;;;;;2.67;1.80;;;;;;;9.47;100.00;104104.53;5041746;28;20041;-76
2021/12/17 12:20:50;;;;;;;4.07;1.90;;;;;;;9.47;100.00;104101.88;5043956;28;20030;-76
2021/12/17 12:23:28;;;;;;;5.57;1.73;;;;;;;9.51;100.00;104107.00;5043676;28;20055;-77
2021/12/17 12:26:02;;;;;;;3.63;2.08;;;;;;;9.50;100.00;104115.88;5044782;28;20046;-76
2021/12/17 12:31:12;;;;;;;2.83;2.33;;;;;;;9.50;100.00;104107.97;5040241;28;20029;-76
2021/12/17 12:34:15;;;;;;;4.20;2.05;;;;;;;9.51;100.00;104112.28;5043359;28;20164;-76
2021/12/17 12:36:53;;;;;;;5.97;2.38;;;;;;;9.50;100.00;104111.44;5041932;28;20476;-76
2021/12/17 12:39:54;;;;;;;5.80;2.30;;;;;;;9.50;100.00;104100.03;5036953;28;20049;-76
2021/12/17 12:42:19;;;;;;;4.63;2.38;;;;;;;9.54;100.00;104109.50;5043434;28;20029;-76
2021/12/17 12:44:44;;;;;;;3.85;2.67;;;;;;;9.56;100.00;104110.31;5051072;28;20112;-76
2021/12/17 12:47:35;;;;;;;3.83;2.05;;;;;;;9.55;100.00;104114.75;5047409;28;20104;-76
2021/12/17 12:50:04;;;;;;;3.55;1.90;;;;;;;9.57;100.00;104109.41;5044941;28;20033;-76
2021/12/17 12:52:30;;;;;;;3.67;2.53;;;;;;;9.57;100.00;104118.16;5052187;28;20048;-76
2021/12/17 12:54:59;;;;;;;3.55;2.40;;;;;;;9.48;100.00;104095.69;5045434;28;20034;-76
2021/12/17 12:57:34;;;;;;;3.28;2.17;;;;;;;9.57;100.00;104112.03;5043795;28;20025;-76
2021/12/17 13:00:06;;;;;;;3.47;1.90;;;;;;;9.48;100.00;104105.38;5047028;28;20041;-76
2021/12/17 13:02:32;;;;;;;5.10;2.45;;;;;;;9.52;100.00;104098.19;5046801;28;20036;-76
2021/12/17 13:04:59;;;;;;;3.38;2.00;;;;;;;9.51;100.00;104101.75;5046796;28;20047;-76
2021/12/17 13:07:32;;;;;;;4.95;1.90;;;;;;;9.51;100.00;104094.69;5049710;28;20036;-76
2021/12/17 13:10:04;;;;;;;3.92;1.95;;;;;;;9.50;100.00;104100.91;5054456;28;20026;-76
2021/12/17 13:12:30;;;;;;;3.78;2.00;;;;;;;9.52;100.00;104099.06;5056838;28;20059;-76
2021/12/17 13:14:57;;;;;;;2.25;1.73;;;;;;;9.53;100.00;104105.19;5046401;28;20497;-76
2021/12/17 13:20:15;;;;;;;2.58;2.10;;;;;;;9.54;100.00;104106.88;5051669;28;20047;-76
2021/12/17 13:20:43;;;;;;;2.50;1.90;;;;;;;9.53;100.00;104100.75;5043048;28;20046;-77
2021/12/17 13:23:15;;;;;;;5.50;2.20;;;;;;;9.41;100.00;104083.69;5046019;28;20045;-77
2021/12/17 13:25:40;;;;;;;4.13;2.08;;;;;;;9.50;100.00;104095.63;5036219;28;20040;-76
2021/12/17 13:28:06;;;;;;;2.50;1.85;;;;;;;9.47;100.00;104096.63;5050422;28;20029;-77
2021/12/17 13:30:31;;;;;;;3.65;1.90;;;;;;;9.36;100.00;104076.88;5052381;28;20022;-77
2021/12/17 13:32:57;;;;;;;4.10;2.40;;;;;;;9.34;100.00;104076.94;5063193;28;20033;-77
2021/12/17 13:35:22;;;;;;;3.10;2.08;;;;;;;9.41;100.00;104081.03;5049195;28;20024;-77
2021/12/17 13:37:52;;;;;;;3.25;2.50;;;;;;;9.46;100.00;104072.94;5054337;28;20036;-77
2021/12/17 13:40:23;;;;;;;3.58;2.22;;;;;;;9.38;100.00;104060.06;5060325;28;20033;-78
2021/12/17 13:42:48;;;;;;;3.38;2.25;;;;;;;9.45;100.00;104068.56;5050280;28;20020;-78
2021/12/17 13:45:20;;;;;;;4.75;2.47;;;;;;;9.47;100.00;104069.38;5053038;28;20036;-77
2021/12/17 13:47:47;;;;;;;3.92;2.47;;;;;;;9.46;100.00;104075.56;5049482;28;20028;-79
2021/12/17 13:50:12;;;;;;;3.15;2.22;;;;;;;9.46;100.00;104076.41;5058611;28;20036;-78
2021/12/17 13:52:50;;;;;;;3.05;2.03;;;;;;;9.33;100.00;104048.84;5058016;28;20029;-77
2021/12/17 13:55:20;;;;;;;4.88;2.20;;;;;;;9.42;100.00;104066.91;5052515;28;20025;-78
2021/12/17 13:57:46;;;;;;;5.40;2.60;;;;;;;9.36;100.00;104058.41;5058199;28;20389;-78
2021/12/17 14:00:20;;;;;;;5.28;2.47;;;;;;;9.45;100.00;104072.09;5074411;28;20090;-78
2021/12/17 14:02:47;;;;;;;5.93;2.58;;;;;;;9.44;100.00;104064.22;5050399;28;20036;-77
2021/12/17 14:05:24;;;;;;;4.68;2.33;;;;;;;9.43;100.00;104067.81;5060968;28;20508;-77
2021/12/17 14:07:52;;;;;;;4.45;3.13;;;;;;;9.42;100.00;104069.56;5051684;28;20389;-77
2021/12/17 14:10:21;;;;;;;7.03;2.90;;;;;;;9.35;100.00;104060.19;5051922;28;20028;-77
2021/12/17 14:12:47;;;;;;;4.50;3.03;;;;;;;9.39;100.00;104058.31;5065896;28;20092;-77
2021/12/17 14:15:22;;;;;;;6.47;2.60;;;;;;;9.26;100.00;104050.03;5050316;28;20030;-77
2021/12/17 14:17:53;;;;;;;7.10;2.53;;;;;;;9.32;100.00;104073.50;5066209;28;20028;-77
2021/12/17 14:20:21;;;;;;;4.23;2.40;;;;;;;9.24;100.00;104062.41;5048579;28;20029;-77
2021/12/17 14:22:50;;;;;;;3.72;2.35;;;;;;;9.19;100.00;104056.47;5052059;28;20037;-77
2021/12/17 14:25:39;;;;;;;5.00;2.40;;;;;;;9.24;100.00;104072.97;5055010;28;20115;-77
2021/12/17 14:28:09;;;;;;;12.95;3.22;;;;;;;9.23;100.00;104076.50;5055899;28;20038;-77
2021/12/17 14:30:35;;;;;;;7.78;2.95;;;;;;;9.14;100.00;104066.34;5046554;28;20025;-77
2021/12/17 14:33:14;;;;;;;9.32;2.58;;;;;;;9.12;100.00;104074.28;5050883;28;20052;-79
2021/12/17 14:35:41;;;;;;;3.40;2.70;;;;;;;9.15;100.00;104084.72;5054526;28;20033;-78